createdAt,value
2022-09-23T00:01:05.129Z,7.07
2022-09-23T00:04:01.960Z,7.23
2022-09-23T00:06:28.804Z,7.57
2022-09-23T00:08:55.644Z,7.70
2022-09-23T00:11:23.899Z,7.53
2022-09-23T00:13:51.938Z,8.90
2022-09-23T00:16:20.926Z,8.90
2022-09-23T00:18:49.691Z,7.37
2022-09-23T00:21:17.076Z,9.30
2022-09-23T00:23:44.352Z,8.03
2022-09-23T00:26:13.114Z,8.70
2022-09-23T00:28:40.734Z,8.33
2022-09-23T00:31:08.979Z,8.57
2022-09-23T00:33:35.913Z,8.70
2022-09-23T00:36:04.172Z,9.00
2022-09-23T00:38:31.381Z,8.03
2022-09-23T00:40:58.654Z,7.93
2022-09-23T00:43:41.119Z,8.13
2022-09-23T00:46:16.973Z,8.57
2022-09-23T00:48:44.201Z,7.57
2022-09-23T00:51:13.055Z,9.20
2022-09-23T00:53:39.992Z,8.43
2022-09-23T00:56:08.552Z,9.23
2022-09-23T00:58:37.237Z,9.00
2022-09-23T01:01:04.483Z,8.77
2022-09-23T01:03:31.763Z,9.93
2022-09-23T01:05:58.764Z,16.97
2022-09-23T01:08:26.983Z,22.37
2022-09-23T01:11:19.076Z,26.70
2022-09-23T01:14:09.030Z,13.10
2022-09-23T01:16:42.037Z,9.23
2022-09-23T01:19:27.920Z,8.43
2022-09-23T01:22:05.144Z,8.30
2022-09-23T01:24:35.034Z,8.27
2022-09-23T01:27:01.949Z,7.90
2022-09-23T01:29:35.700Z,8.47
2022-09-23T01:32:15.027Z,7.63
2022-09-23T01:34:50.194Z,8.90
2022-09-23T01:37:25.166Z,7.47
2022-09-23T01:39:58.343Z,7.00
2022-09-23T01:42:34.637Z,7.40
2022-09-23T01:45:13.398Z,6.97
2022-09-23T01:47:43.337Z,8.00
2022-09-23T01:50:33.096Z,8.57
2022-09-23T01:53:02.720Z,9.60
2022-09-23T01:55:32.132Z,8.67
2022-09-23T01:58:01.836Z,8.73
2022-09-23T02:00:30.317Z,9.00
2022-09-23T02:03:05.088Z,7.83
2022-09-23T02:05:38.331Z,9.03
2022-09-23T02:08:08.489Z,9.13
2022-09-23T02:10:38.372Z,9.10
2022-09-23T02:13:14.003Z,8.37
2022-09-23T02:15:45.119Z,8.43
2022-09-23T02:18:17.197Z,9.00
2022-09-23T02:20:44.207Z,9.07
2022-09-23T02:23:13.242Z,9.97
2022-09-23T02:25:40.074Z,9.40
2022-09-23T02:28:15.204Z,9.33
2022-09-23T02:30:49.154Z,9.90
2022-09-23T02:33:24.626Z,10.43
2022-09-23T02:35:57.781Z,9.40
2022-09-23T02:38:27.981Z,10.20
2022-09-23T02:41:07.605Z,8.77
2022-09-23T02:43:39.356Z,9.27
2022-09-23T02:46:07.278Z,8.20
2022-09-23T02:48:44.706Z,8.20
2022-09-23T02:51:12.969Z,8.03
2022-09-23T02:53:40.355Z,8.60
2022-09-23T02:56:17.506Z,8.10
2022-09-23T02:58:44.554Z,8.43
2022-09-23T03:01:26.461Z,8.33
2022-09-23T03:04:05.328Z,9.13
2022-09-23T03:06:44.079Z,8.50
2022-09-23T03:09:14.395Z,7.57
2022-09-23T03:11:45.134Z,6.97
2022-09-23T03:14:38.554Z,7.90
2022-09-23T03:17:12.715Z,9.67
2022-09-23T03:20:00.509Z,9.40
2022-09-23T03:22:30.531Z,9.33
2022-09-23T03:25:01.175Z,7.90
2022-09-23T03:27:29.258Z,7.00
2022-09-23T03:29:56.563Z,6.90
2022-09-23T03:32:24.830Z,7.00
2022-09-23T03:34:53.850Z,8.67
2022-09-23T03:37:23.708Z,5.17
2022-09-23T03:40:09.099Z,5.40
2022-09-23T03:42:36.845Z,6.13
2022-09-23T03:45:07.455Z,4.80
2022-09-23T03:47:34.293Z,4.77
2022-09-23T03:50:01.519Z,6.57
2022-09-23T03:52:28.779Z,7.00
2022-09-23T03:54:55.676Z,7.00
2022-09-23T03:57:22.557Z,6.80
2022-09-23T03:59:50.788Z,6.53
2022-09-23T04:02:18.681Z,7.97
2022-09-23T04:04:45.882Z,10.60
2022-09-23T04:07:13.081Z,10.17
2022-09-23T04:09:40.350Z,9.03
2022-09-23T04:12:07.819Z,7.77
2022-09-23T04:14:34.602Z,8.47
2022-09-23T04:17:01.510Z,9.30
2022-09-23T04:19:28.336Z,11.80
2022-09-23T04:21:55.241Z,6.00
2022-09-23T04:24:22.279Z,8.10
2022-09-23T04:26:53.532Z,9.37
2022-09-23T04:29:20.905Z,10.10
2022-09-23T04:31:48.096Z,10.27
2022-09-23T04:34:17.435Z,10.50
2022-09-23T04:36:47.467Z,8.53
2022-09-23T04:39:15.207Z,8.20
2022-09-23T04:41:42.505Z,8.17
2022-09-23T04:44:09.283Z,8.60
2022-09-23T04:46:36.175Z,8.13
2022-09-23T04:49:03.134Z,10.80
2022-09-23T04:51:29.961Z,14.77
2022-09-23T04:53:56.776Z,12.77
2022-09-23T04:56:28.538Z,13.90
2022-09-23T04:58:58.614Z,12.13
2022-09-23T05:01:27.292Z,10.53
2022-09-23T05:03:55.897Z,9.83
2022-09-23T05:06:22.724Z,10.30
2022-09-23T05:08:50.865Z,9.50
2022-09-23T05:11:19.253Z,9.27
2022-09-23T05:13:50.133Z,8.93
2022-09-23T05:16:17.441Z,8.50
2022-09-23T05:18:45.372Z,7.70
2022-09-23T05:21:13.256Z,7.90
2022-09-23T05:23:40.978Z,7.97
2022-09-23T05:26:08.896Z,7.03
2022-09-23T05:28:36.207Z,7.53
2022-09-23T05:31:19.778Z,7.10
2022-09-23T05:33:48.962Z,6.73
2022-09-23T05:36:17.972Z,7.37
2022-09-23T05:38:45.309Z,6.50
2022-09-23T05:41:13.280Z,6.53
2022-09-23T05:43:41.151Z,7.83
2022-09-23T05:46:10.204Z,7.93
2022-09-23T05:48:37.221Z,8.17
2022-09-23T05:51:04.627Z,7.80
2022-09-23T05:53:31.555Z,7.73
2022-09-23T05:55:58.374Z,8.47
2022-09-23T05:58:25.515Z,8.13
2022-09-23T06:00:52.406Z,6.80
2022-09-23T06:03:20.455Z,7.43
2022-09-23T06:05:48.599Z,8.13
2022-09-23T06:08:15.554Z,7.47
2022-09-23T06:10:43.668Z,9.60
2022-09-23T06:13:10.550Z,9.00
2022-09-23T06:15:37.903Z,9.47
2022-09-23T06:18:05.789Z,9.60
2022-09-23T06:20:33.462Z,10.03
2022-09-23T06:23:09.041Z,9.87
2022-09-23T06:25:38.693Z,10.30
2022-09-23T06:28:07.573Z,12.37
2022-09-23T06:30:34.975Z,11.40
2022-09-23T06:33:02.093Z,10.03
2022-09-23T06:35:29.015Z,10.10
2022-09-23T06:37:55.879Z,9.87
2022-09-23T06:40:22.808Z,10.07
2022-09-23T06:42:57.187Z,10.33
2022-09-23T06:45:24.033Z,9.47
2022-09-23T06:47:56.327Z,10.40
2022-09-23T06:50:24.264Z,10.57
2022-09-23T06:52:56.321Z,10.27
2022-09-23T06:55:27.402Z,10.10
2022-09-23T06:57:54.880Z,10.63
2022-09-23T07:00:21.941Z,10.37
2022-09-23T07:02:49.147Z,11.50
2022-09-23T07:05:17.451Z,9.50
2022-09-23T07:07:44.895Z,10.13
2022-09-23T07:10:12.143Z,11.30
2022-09-23T07:12:39.178Z,10.73
2022-09-23T07:15:06.174Z,10.40
2022-09-23T07:17:32.984Z,10.03
2022-09-23T07:19:59.754Z,11.23
2022-09-23T07:22:26.679Z,10.87
2022-09-23T07:24:56.598Z,9.70
2022-09-23T07:27:24.011Z,10.17
2022-09-23T07:29:52.074Z,10.07
2022-09-23T07:32:19.704Z,9.77
2022-09-23T07:34:47.420Z,9.37
2022-09-23T07:37:15.179Z,9.77
2022-09-23T07:39:42.114Z,10.10
2022-09-23T07:42:09.138Z,9.47
2022-09-23T07:44:35.951Z,9.37
2022-09-23T07:47:02.801Z,8.90
2022-09-23T07:49:29.801Z,7.43
2022-09-23T07:51:56.757Z,8.30
2022-09-23T07:54:25.649Z,9.07
2022-09-23T07:56:52.516Z,8.30
2022-09-23T07:59:19.410Z,8.57
2022-09-23T08:01:48.524Z,8.07
2022-09-23T08:04:18.011Z,7.87
2022-09-23T08:06:46.301Z,7.73
2022-09-23T08:09:13.532Z,7.90
2022-09-23T08:11:42.491Z,7.40
2022-09-23T08:14:10.441Z,7.73
2022-09-23T08:16:37.383Z,7.60
2022-09-23T08:21:32.276Z,6.80
2022-09-23T08:23:59.416Z,7.83
2022-09-23T08:26:26.811Z,7.90
2022-09-23T08:28:54.870Z,7.10
2022-09-23T08:31:22.282Z,6.73
2022-09-23T08:33:53.912Z,6.83
2022-09-23T08:36:20.775Z,7.40
2022-09-23T08:38:47.542Z,7.07
2022-09-23T08:41:25.199Z,6.23
2022-09-23T08:43:56.069Z,6.70
2022-09-23T08:46:26.357Z,7.07
2022-09-23T08:48:53.737Z,6.87
2022-09-23T08:51:26.116Z,6.10
2022-09-23T08:53:53.083Z,5.40
2022-09-23T08:56:22.529Z,4.90
2022-09-23T08:58:55.646Z,5.23
2022-09-23T09:01:41.410Z,5.07
2022-09-23T09:04:27.798Z,4.27
2022-09-23T09:07:24.541Z,3.43
2022-09-23T09:09:52.075Z,3.93
2022-09-23T09:12:25.266Z,4.23
2022-09-23T09:15:11.167Z,4.60
2022-09-23T09:17:59.390Z,3.70
2022-09-23T09:20:36.312Z,3.30
2022-09-23T09:23:23.319Z,3.40
2022-09-23T09:25:54.477Z,3.03
2022-09-23T09:28:31.159Z,3.77
2022-09-23T09:31:01.049Z,3.03
2022-09-23T09:33:42.784Z,3.73
2022-09-23T09:36:20.068Z,3.73
2022-09-23T09:38:47.021Z,3.43
2022-09-23T09:41:15.912Z,3.30
2022-09-23T09:43:44.786Z,3.50
2022-09-23T09:46:34.269Z,3.13
2022-09-23T09:49:03.970Z,3.20
2022-09-23T09:51:30.775Z,2.50
2022-09-23T09:54:16.608Z,3.00
2022-09-23T09:56:44.906Z,2.90
2022-09-23T09:59:16.731Z,2.30
2022-09-23T10:01:43.613Z,2.37
2022-09-23T10:04:25.185Z,2.90
2022-09-23T10:07:07.502Z,2.37
2022-09-23T10:09:38.603Z,2.27
2022-09-23T10:12:16.061Z,1.90
2022-09-23T10:14:43.406Z,2.70
2022-09-23T10:17:19.509Z,2.07
2022-09-23T10:19:48.360Z,2.50
2022-09-23T10:22:23.988Z,1.83
2022-09-23T10:24:52.901Z,2.50
2022-09-23T10:27:27.383Z,2.00
2022-09-23T10:29:56.730Z,1.60
2022-09-23T10:32:28.027Z,1.87
2022-09-23T10:34:54.771Z,2.50
2022-09-23T10:37:24.670Z,2.20
2022-09-23T10:40:10.261Z,2.27
2022-09-23T10:43:14.565Z,2.30
2022-09-23T10:46:05.384Z,2.10
2022-09-23T10:48:37.970Z,2.33
2022-09-23T10:51:07.916Z,2.00
2022-09-23T10:53:42.600Z,1.90
2022-09-23T10:56:35.606Z,1.90
2022-09-23T10:59:11.091Z,1.80
2022-09-23T11:01:59.249Z,1.37
2022-09-23T11:04:26.173Z,1.30
2022-09-23T11:07:08.009Z,1.53
2022-09-23T11:09:40.716Z,1.30
2022-09-23T11:12:26.390Z,1.70
2022-09-23T11:14:56.069Z,1.63
2022-09-23T11:17:34.906Z,0.90
2022-09-23T11:20:01.704Z,1.20
2022-09-23T11:22:47.458Z,1.20
2022-09-23T11:25:32.623Z,1.20
2022-09-23T11:28:07.653Z,1.80
2022-09-23T11:31:14.757Z,1.30
2022-09-23T11:33:59.369Z,1.10
2022-09-23T11:36:30.652Z,0.93
2022-09-23T11:38:59.510Z,0.90
2022-09-23T11:41:28.539Z,1.23
2022-09-23T11:44:14.181Z,0.77
2022-09-23T11:46:43.870Z,1.20
2022-09-23T11:49:26.601Z,1.00
2022-09-23T11:52:13.687Z,1.60
2022-09-23T11:54:45.398Z,1.47
2022-09-23T11:57:18.086Z,1.20
2022-09-23T12:02:40.171Z,1.30
2022-09-23T12:05:17.296Z,1.20
2022-09-23T12:07:48.987Z,1.33
2022-09-23T12:10:16.119Z,1.57
2022-09-23T12:13:19.329Z,1.50
2022-09-23T12:15:46.208Z,1.33
2022-09-23T12:18:22.990Z,0.97
2022-09-23T12:21:00.354Z,1.27
2022-09-23T12:23:27.198Z,1.20
2022-09-23T12:26:00.899Z,0.97
2022-09-23T12:28:49.170Z,0.70
2022-09-23T12:31:17.672Z,1.10
2022-09-23T12:33:54.503Z,1.00
2022-09-23T12:36:35.904Z,0.70
2022-09-23T12:39:07.733Z,1.17
2022-09-23T12:41:37.892Z,1.23
2022-09-23T12:44:11.266Z,1.07
2022-09-23T12:46:38.311Z,1.00
2022-09-23T12:49:08.095Z,1.10
2022-09-23T12:51:35.863Z,1.20
2022-09-23T12:54:05.804Z,0.93
2022-09-23T12:56:42.625Z,1.40
2022-09-23T12:59:26.947Z,1.00
2022-09-23T13:01:54.543Z,1.00
2022-09-23T13:04:46.214Z,1.00
2022-09-23T13:07:16.650Z,0.90
2022-09-23T13:09:46.858Z,0.73
2022-09-23T13:12:23.127Z,0.80
2022-09-23T13:14:51.645Z,1.50
2022-09-23T13:17:26.285Z,1.10
2022-09-23T13:20:05.110Z,1.40
2022-09-23T13:23:01.545Z,1.27
2022-09-23T13:25:29.669Z,1.60
2022-09-23T13:27:57.808Z,1.50
2022-09-23T13:30:26.943Z,1.10
2022-09-23T13:33:02.992Z,1.10
2022-09-23T13:35:34.821Z,1.20
2022-09-23T13:38:10.305Z,1.13
2022-09-23T13:40:37.869Z,1.07
2022-09-23T13:43:06.470Z,1.40
2022-09-23T13:45:37.651Z,1.10
2022-09-23T13:48:06.345Z,2.23
2022-09-23T13:50:35.278Z,2.43
2022-09-23T13:53:06.050Z,1.10
2022-09-23T13:55:37.454Z,2.20
2022-09-23T13:58:19.432Z,2.17
2022-09-23T14:00:46.572Z,1.70
2022-09-23T14:03:17.377Z,1.50
2022-09-23T14:05:44.607Z,1.43
2022-09-23T14:08:12.542Z,1.40
2022-09-23T14:10:43.148Z,1.10
2022-09-23T14:13:17.245Z,1.27
2022-09-23T14:15:45.240Z,1.00
2022-09-23T14:18:18.054Z,1.30
2022-09-23T14:20:45.483Z,1.20
2022-09-23T14:23:14.205Z,1.43
2022-09-23T14:25:42.478Z,1.27
2022-09-23T14:28:12.856Z,2.00
2022-09-23T14:30:39.847Z,3.30
2022-09-23T14:33:10.747Z,2.40
2022-09-23T14:35:42.851Z,2.90
2022-09-23T14:38:28.061Z,1.70
2022-09-23T14:41:15.758Z,1.70
2022-09-23T14:43:50.843Z,4.43
2022-09-23T14:46:22.274Z,2.40
2022-09-23T14:48:54.895Z,1.60
2022-09-23T14:51:28.604Z,1.70
2022-09-23T14:53:55.393Z,1.90
2022-09-23T14:56:24.129Z,1.80
2022-09-23T14:58:53.758Z,1.70
2022-09-23T15:01:32.854Z,1.87
2022-09-23T15:04:00.883Z,2.33
2022-09-23T15:06:27.888Z,1.73
2022-09-23T15:08:55.841Z,1.90
2022-09-23T15:11:22.930Z,2.27
2022-09-23T15:13:51.015Z,2.17
2022-09-23T15:16:23.242Z,1.60
2022-09-23T15:18:54.315Z,2.43
2022-09-23T15:21:22.285Z,2.20
2022-09-23T15:23:49.040Z,2.67
2022-09-23T15:26:15.937Z,1.93
2022-09-23T15:28:43.529Z,1.90
2022-09-23T15:31:13.942Z,1.60
2022-09-23T15:33:40.935Z,1.67
2022-09-23T15:36:11.674Z,1.63
2022-09-23T15:38:42.477Z,1.73
2022-09-23T15:41:09.370Z,2.37
2022-09-23T15:43:36.243Z,3.20
2022-09-23T15:46:07.502Z,1.97
2022-09-23T15:48:39.513Z,3.70
2022-09-23T15:51:07.231Z,3.73
2022-09-23T15:53:34.334Z,3.00
2022-09-23T15:56:01.343Z,1.93
2022-09-23T15:58:28.185Z,1.83
2022-09-23T16:00:56.838Z,1.77
2022-09-23T16:03:29.101Z,1.50
2022-09-23T16:06:00.785Z,1.53
2022-09-23T16:08:28.165Z,2.03
2022-09-23T16:10:55.411Z,1.63
2022-09-23T16:13:22.390Z,1.77
2022-09-23T16:15:49.148Z,2.70
2022-09-23T16:18:16.038Z,1.90
2022-09-23T16:20:44.705Z,2.97
2022-09-23T16:23:34.660Z,5.47
2022-09-23T16:26:06.475Z,2.93
2022-09-23T16:28:33.572Z,2.50
2022-09-23T16:31:02.112Z,7.53
2022-09-23T16:33:29.008Z,5.60
2022-09-23T16:35:55.918Z,3.70
2022-09-23T16:38:22.817Z,2.40
2022-09-23T16:40:49.606Z,3.53
2022-09-23T16:43:16.644Z,4.10
2022-09-23T16:45:43.586Z,4.83
2022-09-23T16:48:11.343Z,5.17
2022-09-23T16:50:38.255Z,4.90
2022-09-23T16:53:05.103Z,6.60
2022-09-23T16:55:31.921Z,8.40
2022-09-23T16:57:58.699Z,9.50
2022-09-23T17:00:44.220Z,26.60
2022-09-23T17:03:31.018Z,15.47
2022-09-23T17:05:58.127Z,12.00
2022-09-23T17:08:24.912Z,12.90
2022-09-23T17:10:55.954Z,8.43
2022-09-23T17:13:22.999Z,8.60
2022-09-23T17:15:49.960Z,7.30
2022-09-23T17:18:19.558Z,8.40
2022-09-23T17:21:02.946Z,7.67
2022-09-23T17:23:31.693Z,8.50
2022-09-23T17:25:59.506Z,8.53
2022-09-23T17:28:26.415Z,8.77
2022-09-23T17:31:00.269Z,8.00
2022-09-23T17:33:28.039Z,8.83
2022-09-23T17:35:55.168Z,10.57
2022-09-23T17:38:26.717Z,48.40
2022-09-23T17:40:56.439Z,32.10
2022-09-23T17:43:26.559Z,25.30
2022-09-23T17:45:54.608Z,27.40
2022-09-23T17:48:22.062Z,22.33
2022-09-23T17:50:55.971Z,17.47
2022-09-23T17:53:23.072Z,24.47
2022-09-23T17:55:59.886Z,32.27
2022-09-23T17:58:30.843Z,28.37
2022-09-23T18:00:58.513Z,15.80
2022-09-23T18:03:26.384Z,11.80
2022-09-23T18:05:53.546Z,18.20
2022-09-23T18:08:20.785Z,9.33
2022-09-23T18:10:47.776Z,12.33
2022-09-23T18:13:14.895Z,11.63
2022-09-23T18:15:41.804Z,13.23
2022-09-23T18:18:08.605Z,13.93
2022-09-23T18:20:35.511Z,15.90
2022-09-23T18:23:02.273Z,20.40
2022-09-23T18:25:39.279Z,38.87
2022-09-23T18:28:06.812Z,35.90
2022-09-23T18:30:33.694Z,10.60
2022-09-23T18:33:00.592Z,10.30
2022-09-23T18:35:28.591Z,9.13
2022-09-23T18:37:56.386Z,9.43
2022-09-23T18:40:23.193Z,10.50
2022-09-23T18:42:50.550Z,23.97
2022-09-23T18:45:17.347Z,16.20
2022-09-23T18:48:02.628Z,14.33
2022-09-23T18:50:43.262Z,11.67
2022-09-23T18:53:10.412Z,9.73
2022-09-23T18:55:37.492Z,9.63
2022-09-23T18:58:07.596Z,8.23
2022-09-23T19:00:35.150Z,11.93
2022-09-23T19:03:02.104Z,10.33
2022-09-23T19:05:29.245Z,10.47
2022-09-23T19:07:56.088Z,10.20
2022-09-23T19:10:22.864Z,11.00
2022-09-23T19:12:49.803Z,11.50
2022-09-23T19:15:16.678Z,16.83
2022-09-23T19:17:43.465Z,23.07
2022-09-23T19:20:10.591Z,14.63
2022-09-23T19:22:37.395Z,14.70
2022-09-23T19:25:04.565Z,15.70
2022-09-23T19:27:31.319Z,22.23
2022-09-23T19:29:58.185Z,20.63
2022-09-23T19:32:27.384Z,19.40
2022-09-23T19:34:54.262Z,16.17
2022-09-23T19:37:21.099Z,16.13
2022-09-23T19:39:48.143Z,18.03
2022-09-23T19:42:14.921Z,16.47
2022-09-23T19:44:41.929Z,15.07
2022-09-23T19:47:15.580Z,16.87
2022-09-23T19:49:42.489Z,15.57
2022-09-23T19:52:09.374Z,15.50
2022-09-23T19:54:36.517Z,16.03
2022-09-23T19:57:03.481Z,15.33
2022-09-23T19:59:30.240Z,17.47
2022-09-23T20:01:57.266Z,13.63
2022-09-23T20:04:24.134Z,12.07
2022-09-23T20:06:51.006Z,14.73
2022-09-23T20:09:17.860Z,16.70
2022-09-23T20:11:44.934Z,16.50
2022-09-23T20:14:13.651Z,18.17
2022-09-23T20:16:41.588Z,21.30
2022-09-23T20:19:10.600Z,26.43
2022-09-23T20:21:37.608Z,23.80
2022-09-23T20:24:05.918Z,21.70
2022-09-23T20:26:52.141Z,20.80
2022-09-23T20:29:20.021Z,21.23
2022-09-23T20:31:46.838Z,19.37
2022-09-23T20:34:13.795Z,22.70
2022-09-23T20:36:42.309Z,24.17
2022-09-23T20:39:10.183Z,23.20
2022-09-23T20:41:38.589Z,18.27
2022-09-23T20:44:12.338Z,17.50
2022-09-23T20:46:44.031Z,19.40
2022-09-23T20:49:13.908Z,21.87
2022-09-23T20:51:41.649Z,24.53
2022-09-23T20:54:09.932Z,21.77
2022-09-23T20:56:37.075Z,21.17
2022-09-23T20:59:04.804Z,21.07
2022-09-23T21:01:35.388Z,21.70
2022-09-23T21:04:05.823Z,22.00
2022-09-23T21:06:36.938Z,16.10
2022-09-23T21:09:04.276Z,13.20
2022-09-23T21:11:32.780Z,12.97
2022-09-23T21:14:01.327Z,11.33
2022-09-23T21:16:28.502Z,13.17
2022-09-23T21:18:55.410Z,16.73
2022-09-23T21:21:22.797Z,19.10
2022-09-23T21:23:50.515Z,19.13
2022-09-23T21:26:22.088Z,20.63
2022-09-23T21:28:50.782Z,19.47
2022-09-23T21:31:24.081Z,21.70
2022-09-23T21:34:08.448Z,21.17
2022-09-23T21:36:39.371Z,20.17
2022-09-23T21:39:06.931Z,21.20
2022-09-23T21:41:34.660Z,21.47
2022-09-23T21:44:04.872Z,20.83
2022-09-23T21:46:34.861Z,14.93
2022-09-23T21:49:04.251Z,14.77
2022-09-23T21:51:41.435Z,15.57
2022-09-23T21:54:18.538Z,15.67
2022-09-23T21:56:45.527Z,15.30
2022-09-23T21:59:12.431Z,15.53
2022-09-23T22:01:41.600Z,12.90
2022-09-23T22:04:13.831Z,12.53
2022-09-23T22:06:40.739Z,12.70
2022-09-23T22:09:10.967Z,11.70
2022-09-23T22:11:57.314Z,11.40
2022-09-23T22:14:27.559Z,11.13
2022-09-23T22:16:57.696Z,12.17
2022-09-23T22:19:35.689Z,10.93
2022-09-23T22:22:06.393Z,11.00
2022-09-23T22:24:33.203Z,11.33
2022-09-23T22:26:59.991Z,10.73
2022-09-23T22:29:45.533Z,11.20
2022-09-23T22:32:30.922Z,11.53
2022-09-23T22:34:57.938Z,11.50
2022-09-23T22:37:26.422Z,11.57
2022-09-23T22:39:53.669Z,11.53
2022-09-23T22:42:23.934Z,10.97
2022-09-23T22:44:51.185Z,10.67
2022-09-23T22:47:18.425Z,11.17
2022-09-23T22:49:48.535Z,11.00
2022-09-23T22:52:21.327Z,10.67
2022-09-23T22:54:48.238Z,11.20
2022-09-23T22:57:15.487Z,11.17
2022-09-23T22:59:48.090Z,11.67
2022-09-23T23:02:19.153Z,11.37
2022-09-23T23:04:49.027Z,11.33
2022-09-23T23:07:20.492Z,10.73
2022-09-23T23:09:48.056Z,11.07
2022-09-23T23:12:14.912Z,11.40
2022-09-23T23:14:42.450Z,12.27
2022-09-23T23:17:09.318Z,11.10
2022-09-23T23:19:37.151Z,11.07
2022-09-23T23:22:04.916Z,12.33
2022-09-23T23:24:32.627Z,11.87
2022-09-23T23:26:59.432Z,11.93
2022-09-23T23:29:26.207Z,11.47
2022-09-23T23:31:53.226Z,11.53
2022-09-23T23:34:21.226Z,10.30
2022-09-23T23:36:53.650Z,12.03
2022-09-23T23:39:21.186Z,11.30
2022-09-23T23:41:48.361Z,10.90
2022-09-23T23:44:15.185Z,12.80
2022-09-23T23:46:42.095Z,12.20
2022-09-23T23:49:08.835Z,11.13
2022-09-23T23:51:35.760Z,11.13
2022-09-23T23:54:03.384Z,11.33
2022-09-23T23:56:30.701Z,10.43
2022-09-23T23:59:02.663Z,11.93
